CN39 weather

Operating Engineers Pension Trust Bldg Heliport
Los Angeles, California, United States

Public forecast

Using degrees Fahrenheit for public forecast. Weather courtesy of forecast.io.

Closest aviation weather report (METAR) to Operating Engineers Pension Trust Bldg Heliport

Closest report is Santa Monica Municipal Airport, 8.4 nm (15.6 km) WSW. Retrieved 2020/02/24 01:51 UTC (28 minutes ago):

KSMO 240151Z 25005KT 10SM CLR 14/09 A3023 RMK AO2 SLP235 T01390089

Closest aviation forecast (TAF) to Operating Engineers Pension Trust Bldg Heliport

Closest forecast is Santa Monica Municipal Airport, 8.4 nm (15.6 km) WSW. Retrieved 2020-02-24 00:20 UTC (2 hours ago):

TAF KSMO 232320Z 2400/2424 23008KT P6SM SKC FM240300 VRB03KT P6SM SKC FM241000 VRB03KT 5SM BR BKN008 FM241700 VRB03KT P6SM FEW010 FM242000 23008KT P6SM SKC